Time;durP1;ratioP1;P1;durP2;ratioP2;P2;SDS_P1;SDS_P2;PMS_P1;PMS_P2;Temp;Humidity;BMP_temperature;BMP_pressure;BME280_temperature;BME280_humidity;BME280_pressure;Samples;Min_cycle;Max_cycle;Signal;HPM_P1;HPM_P2
2023/09/29 00:02:20;;;;;;;0.10;0.10;;;;;;;15.44;65.78;100532.03;5031132;28;20519;-69
2023/09/29 00:04:46;;;;;;;0.20;0.20;;;;;;;15.44;65.68;100521.00;5058781;28;20048;-68
2023/09/29 00:07:12;;;;;;;0.20;0.20;;;;;;;15.42;65.54;100527.94;5059294;28;20076;-68
2023/09/29 00:09:38;;;;;;;0.10;0.10;;;;;;;15.41;65.75;100527.09;5057450;28;20102;-68
2023/09/29 00:12:04;;;;;;;0.20;0.20;;;;;;;15.40;65.95;100525.47;5066796;28;20139;-68
2023/09/29 00:14:32;;;;;;;0.17;0.17;;;;;;;15.36;65.55;100527.16;5061788;28;20057;-69
2023/09/29 00:16:58;;;;;;;0.20;0.20;;;;;;;15.36;65.96;100523.56;5058532;28;20051;-68
2023/09/29 00:19:24;;;;;;;0.20;0.20;;;;;;;15.35;66.03;100527.44;5057237;28;20511;-68
2023/09/29 00:21:50;;;;;;;0.15;0.15;;;;;;;15.35;66.05;100530.19;5062140;28;20045;-69
2023/09/29 00:24:16;;;;;;;0.10;0.10;;;;;;;15.28;66.09;100525.00;5050935;28;20400;-68
2023/09/29 00:26:43;;;;;;;0.20;0.20;;;;;;;15.30;66.36;100533.84;5063606;28;20382;-68
2023/09/29 00:29:09;;;;;;;0.20;0.20;;;;;;;15.31;65.94;100535.47;5065234;28;20067;-68
2023/09/29 00:31:37;;;;;;;0.20;0.20;;;;;;;15.30;66.08;100542.09;5062130;28;20048;-70
2023/09/29 00:34:03;;;;;;;0.20;0.20;;;;;;;15.28;66.08;100536.03;5060648;28;20040;-70
2023/09/29 00:36:29;;;;;;;0.20;0.20;;;;;;;15.23;65.78;100525.91;5043838;28;20049;-70
2023/09/29 00:38:55;;;;;;;0.20;0.20;;;;;;;15.25;66.52;100537.44;5040936;28;20043;-69
2023/09/29 00:41:22;;;;;;;0.20;0.20;;;;;;;15.25;66.36;100536.63;5044069;28;20036;-70
2023/09/29 00:43:50;;;;;;;0.10;0.10;;;;;;;15.22;66.56;100542.72;5064104;28;20067;-68
2023/09/29 00:46:16;;;;;;;0.10;0.10;;;;;;;15.17;66.57;100533.38;5058083;28;20041;-68
2023/09/29 00:48:44;;;;;;;0.20;0.20;;;;;;;15.15;66.41;100538.38;5044410;28;20534;-68
2023/09/29 00:51:10;;;;;;;0.20;0.20;;;;;;;15.14;66.89;100535.88;5041450;28;20609;-68
2023/09/29 00:53:38;;;;;;;0.15;0.15;;;;;;;15.11;66.91;100540.03;5048116;28;20040;-68
2023/09/29 00:56:06;;;;;;;0.20;0.20;;;;;;;15.10;66.86;100537.56;5044871;28;20044;-68
2023/09/29 00:58:32;;;;;;;0.10;0.10;;;;;;;15.09;66.81;100536.75;5041753;28;20905;-68
2023/09/29 01:01:00;;;;;;;0.20;0.20;;;;;;;15.08;66.89;100528.78;5043914;28;20044;-68
2023/09/29 01:03:27;;;;;;;0.10;0.10;;;;;;;15.02;67.38;100528.00;5042403;28;20044;-69
2023/09/29 01:05:55;;;;;;;0.10;0.10;;;;;;;15.02;67.12;100526.06;5043866;28;20508;-68
2023/09/29 01:08:23;;;;;;;0.17;0.17;;;;;;;14.98;67.62;100526.91;5058845;28;20052;-68
2023/09/29 01:10:50;;;;;;;0.10;0.10;;;;;;;15.00;67.28;100530.22;5062561;28;20161;-70
2023/09/29 01:13:16;;;;;;;0.10;0.10;;;;;;;14.99;67.44;100528.56;5060806;28;20443;-70
2023/09/29 01:15:43;;;;;;;0.10;0.10;;;;;;;14.97;67.65;100531.59;5052649;28;20512;-70
2023/09/29 01:18:09;;;;;;;0.17;0.17;;;;;;;14.95;67.51;100530.25;5042357;28;20051;-69
2023/09/29 01:20:37;;;;;;;0.10;0.10;;;;;;;14.93;67.65;100532.47;5044797;28;20041;-70
2023/09/29 01:23:05;;;;;;;0.10;0.10;;;;;;;14.88;67.83;100528.63;5047647;28;20044;-69
2023/09/29 01:25:34;;;;;;;0.20;0.20;;;;;;;14.86;67.82;100532.78;5023351;28;20041;-70
2023/09/29 01:28:01;;;;;;;0.20;0.20;;;;;;;14.83;68.18;100536.94;5041707;28;20072;-68
2023/09/29 01:30:27;;;;;;;0.10;0.10;;;;;;;14.84;67.92;100540.50;5040155;28;20072;-69
2023/09/29 01:32:59;;;;;;;0.10;0.10;;;;;;;14.82;68.37;100537.22;5047063;28;20040;-68
2023/09/29 01:35:27;;;;;;;0.10;0.10;;;;;;;14.80;68.25;100542.19;5061091;28;20425;-69
2023/09/29 01:37:56;;;;;;;0.10;0.10;;;;;;;14.78;68.15;100528.69;5062573;28;20075;-70
2023/09/29 01:40:23;;;;;;;0.10;0.10;;;;;;;14.76;68.35;100530.91;5063345;28;20045;-69
2023/09/29 01:42:52;;;;;;;0.10;0.10;;;;;;;14.73;68.38;100539.75;5060198;28;20041;-69
2023/09/29 01:45:19;;;;;;;0.10;0.10;;;;;;;14.69;68.59;100533.16;5058953;28;20048;-68
2023/09/29 01:47:46;;;;;;;0.15;0.15;;;;;;;14.69;69.01;100535.91;5058733;28;20229;-69
2023/09/29 01:50:16;;;;;;;0.10;0.10;;;;;;;14.69;69.45;100539.47;5062903;28;20051;-68
2023/09/29 01:52:43;;;;;;;0.10;0.10;;;;;;;14.66;69.18;100533.69;5062751;28;20049;-68
2023/09/29 01:55:11;;;;;;;;;;;;;;;14.64;69.47;100535.91;5058215;28;20102;-68
2023/09/29 01:57:41;;;;;;;0.10;0.10;;;;;;;14.61;69.24;100535.38;5056119;28;20391;-69
2023/09/29 02:00:14;;;;;;;0.10;0.10;;;;;;;14.58;69.43;100535.13;5062439;28;20098;-69
2023/09/29 02:02:43;;;;;;;0.10;0.10;;;;;;;14.58;69.73;100535.13;5061357;28;20057;-69
2023/09/29 02:05:10;;;;;;;0.10;0.10;;;;;;;14.56;70.10;100538.16;5047237;28;20049;-67
2023/09/29 02:07:36;;;;;;;;;;;;;;;14.52;70.32;100534.34;5026990;28;20041;-68
2023/09/29 02:10:03;;;;;;;0.10;0.10;;;;;;;14.49;70.40;100531.34;5042807;28;19966;-68
2023/09/29 02:12:31;;;;;;;0.10;0.10;;;;;;;14.46;70.34;100536.31;5042879;28;20041;-67
2023/09/29 02:14:58;;;;;;;0.10;0.10;;;;;;;14.46;70.53;100535.47;5056110;28;20036;-68
2023/09/29 02:17:28;;;;;;;0.10;0.10;;;;;;;14.28;70.62;100510.25;5061276;28;20044;-68
2023/09/29 02:19:54;;;;;;;0.10;0.10;;;;;;;14.43;71.10;100538.78;5061778;28;20056;-68
2023/09/29 02:22:21;;;;;;;0.10;0.10;;;;;;;14.43;70.94;100538.78;5062032;28;20091;-68
2023/09/29 02:24:47;;;;;;;0.10;0.10;;;;;;;14.41;70.80;100535.50;5058002;28;20048;-71
2023/09/29 02:27:14;;;;;;;0.10;0.10;;;;;;;14.39;70.91;100535.78;5058410;28;20123;-70
2023/09/29 02:29:41;;;;;;;0.10;0.10;;;;;;;14.41;71.12;100538.25;5064097;28;20139;-69
2023/09/29 02:32:07;;;;;;;;;;;;;;;14.37;70.93;100537.97;5044500;28;21161;-69
2023/09/29 02:34:35;;;;;;;0.20;0.20;;;;;;;14.35;71.15;100531.94;5065982;28;19924;-68
2023/09/29 02:37:01;;;;;;;0.10;0.10;;;;;;;14.30;71.26;100532.78;5060385;28;20473;-68
2023/09/29 02:39:29;;;;;;;0.10;0.10;;;;;;;14.27;71.04;100530.59;5064737;28;20075;-69
2023/09/29 02:41:56;;;;;;;0.10;0.10;;;;;;;14.27;71.58;100527.03;5050479;28;20072;-69
2023/09/29 02:44:22;;;;;;;0.20;0.20;;;;;;;14.25;71.82;100529.22;5042998;28;20041;-69
2023/09/29 02:46:48;;;;;;;0.10;0.10;;;;;;;14.24;71.87;100531.19;5045810;28;20215;-68
2023/09/29 02:49:20;;;;;;;0.10;0.10;;;;;;;14.23;71.68;100532.28;5062833;28;20060;-68
2023/09/29 02:51:48;;;;;;;0.10;0.10;;;;;;;14.12;71.46;100514.16;5066694;28;20713;-68
2023/09/29 02:54:14;;;;;;;0.10;0.10;;;;;;;14.24;71.89;100542.19;5064574;28;20526;-68
2023/09/29 02:56:40;;;;;;;0.10;0.10;;;;;;;14.22;71.70;100532.56;5064753;28;20049;-68
2023/09/29 02:59:06;;;;;;;0.20;0.20;;;;;;;14.19;72.17;100536.69;5047170;28;20804;-67
2023/09/29 03:01:34;;;;;;;0.10;0.10;;;;;;;14.17;72.41;100536.13;5046182;28;20045;-68
2023/09/29 03:04:00;;;;;;;0.10;0.10;;;;;;;14.14;72.76;100536.72;5077744;28;20044;-70
2023/09/29 03:06:26;;;;;;;0.10;0.10;;;;;;;14.10;73.35;100536.44;5045658;28;20159;-70
2023/09/29 03:08:56;;;;;;;0.10;0.10;;;;;;;14.09;73.50;100537.53;5050447;28;20144;-70
2023/09/29 03:11:22;;;;;;;0.20;0.20;;;;;;;14.09;73.59;100529.28;5063280;28;20053;-70
2023/09/29 03:13:48;;;;;;;0.10;0.10;;;;;;;14.14;73.69;100537.53;5065203;28;20048;-70
2023/09/29 03:16:14;;;;;;;0.10;0.10;;;;;;;14.08;73.81;100530.41;5053601;28;20106;-69
2023/09/29 03:18:41;;;;;;;0.10;0.10;;;;;;;14.09;73.64;100542.22;5045976;28;20057;-69
2023/09/29 03:21:10;;;;;;;0.10;0.10;;;;;;;14.09;73.97;100544.97;5047646;28;20068;-69
2023/09/29 03:23:36;;;;;;;0.10;0.10;;;;;;;14.08;74.29;100537.84;5046584;28;20053;-69
2023/09/29 03:26:04;;;;;;;0.10;0.10;;;;;;;14.07;73.63;100539.75;5057248;28;20114;-70
2023/09/29 03:28:32;;;;;;;0.20;0.20;;;;;;;14.06;73.49;100540.84;5045042;28;20432;-69
2023/09/29 03:31:00;;;;;;;0.20;0.20;;;;;;;14.06;73.75;100531.81;5064288;28;20044;-70
2023/09/29 03:33:27;;;;;;;0.20;0.10;;;;;;;14.10;74.21;100541.13;5067461;28;20064;-71
2023/09/29 03:35:54;;;;;;;0.20;0.20;;;;;;;14.12;74.02;100536.97;5042429;28;20506;-70
2023/09/29 03:38:21;;;;;;;0.10;0.10;;;;;;;14.11;74.12;100534.53;5064970;28;20139;-70
2023/09/29 03:40:50;;;;;;;0.20;0.20;;;;;;;14.13;73.85;100535.06;5064843;28;20040;-70
2023/09/29 03:43:17;;;;;;;0.13;0.13;;;;;;;14.13;73.25;100527.66;5053656;28;20424;-70
2023/09/29 03:45:44;;;;;;;0.20;0.20;;;;;;;14.13;73.52;100533.16;5046644;28;20077;-68
2023/09/29 03:48:10;;;;;;;0.10;0.10;;;;;;;14.15;73.32;100533.69;5042523;28;20102;-68
2023/09/29 03:50:37;;;;;;;0.17;0.17;;;;;;;14.16;73.81;100531.75;5047076;28;20056;-70
2023/09/29 03:53:03;;;;;;;0.10;0.10;;;;;;;14.17;73.71;100536.13;5048490;28;20051;-70
2023/09/29 03:55:30;;;;;;;0.10;0.10;;;;;;;14.15;73.40;100525.44;5054402;28;20048;-70
2023/09/29 03:57:56;;;;;;;0.20;0.20;;;;;;;14.14;73.33;100526.53;5054535;28;20311;-68
2023/09/29 04:00:23;;;;;;;0.20;0.20;;;;;;;14.17;73.59;100528.72;5045085;28;20079;-70
2023/09/29 04:02:50;;;;;;;0.10;0.10;;;;;;;14.19;73.79;100531.19;5043458;28;20148;-70
2023/09/29 04:05:17;;;;;;;0.10;0.10;;;;;;;14.21;73.89;100525.41;5026903;28;20044;-70
2023/09/29 04:07:44;;;;;;;0.10;0.10;;;;;;;14.27;74.00;100530.59;5042614;28;20049;-70
2023/09/29 04:10:12;;;;;;;0.20;0.20;;;;;;;14.25;74.14;100516.31;5063461;28;20056;-70
2023/09/29 04:12:40;;;;;;;0.20;0.20;;;;;;;14.32;73.67;100514.06;5049740;28;20590;-70
2023/09/29 04:15:08;;;;;;;0.20;0.20;;;;;;;14.42;73.17;100523.38;5063047;28;20139;-69
2023/09/29 04:17:36;;;;;;;0.20;0.20;;;;;;;14.46;73.11;100521.72;5064022;28;20536;-70
2023/09/29 04:20:03;;;;;;;0.22;0.22;;;;;;;14.49;72.81;100512.06;5061236;28;20441;-68
2023/09/29 04:22:33;;;;;;;0.20;0.20;;;;;;;14.56;72.27;100521.66;5055808;28;20062;-71
2023/09/29 04:24:59;;;;;;;0.20;0.20;;;;;;;14.57;72.12;100516.97;5028036;28;20045;-70
2023/09/29 04:27:25;;;;;;;0.20;0.20;;;;;;;14.66;71.86;100518.03;5067793;28;20060;-71
2023/09/29 04:29:52;;;;;;;0.20;0.20;;;;;;;14.73;71.93;100523.25;5057253;28;20052;-71
2023/09/29 04:32:18;;;;;;;0.20;0.20;;;;;;;14.76;72.04;100519.91;5045013;28;20047;-69
2023/09/29 04:34:46;;;;;;;0.20;0.20;;;;;;;14.84;72.00;100529.50;5040635;28;20049;-69
2023/09/29 04:37:13;;;;;;;0.20;0.20;;;;;;;14.91;71.57;100527.25;5055601;28;20048;-71
2023/09/29 04:39:39;;;;;;;0.10;0.10;;;;;;;14.95;71.17;100531.06;5060402;28;20283;-69
2023/09/29 04:42:06;;;;;;;0.20;0.20;;;;;;;15.02;70.87;100528.81;5053880;28;21038;-68
2023/09/29 04:44:32;;;;;;;0.20;0.20;;;;;;;15.06;70.52;100529.06;5046920;28;20040;-69
2023/09/29 04:46:59;;;;;;;0.20;0.20;;;;;;;15.07;70.35;100514.19;5054662;28;20635;-69
2023/09/29 04:49:25;;;;;;;0.22;0.22;;;;;;;15.20;70.26;100522.91;5052424;28;20051;-69
2023/09/29 04:51:53;;;;;;;0.20;0.20;;;;;;;15.30;70.48;100522.81;5053517;28;20183;-69
2023/09/29 04:54:19;;;;;;;0.20;0.20;;;;;;;15.42;70.16;100517.72;5054062;28;20132;-69
2023/09/29 04:56:45;;;;;;;0.20;0.20;;;;;;;15.55;69.94;100512.66;4698162;28;9999626;-70
2023/09/29 04:59:11;;;;;;;0.20;0.20;;;;;;;15.57;69.52;100508.50;5046530;28;20051;-68
2023/09/29 05:01:38;;;;;;;0.20;0.20;;;;;;;15.61;69.25;100511.50;5048585;28;20072;-68
2023/09/29 05:04:05;;;;;;;0.20;0.20;;;;;;;15.52;68.96;100494.75;5040059;28;20275;-68
2023/09/29 05:06:31;;;;;;;0.20;0.20;;;;;;;15.63;68.78;100502.94;5044349;28;20036;-68
2023/09/29 05:08:59;;;;;;;0.20;0.20;;;;;;;15.77;69.04;100514.91;5055927;28;20359;-69
2023/09/29 05:11:27;;;;;;;0.30;0.30;;;;;;;15.82;68.34;100509.31;5048441;28;20503;-69
2023/09/29 05:13:55;;;;;;;0.25;0.25;;;;;;;15.84;68.03;100514.56;5050662;28;20056;-68
2023/09/29 05:16:22;;;;;;;0.20;0.20;;;;;;;15.88;68.02;100505.41;5046640;28;20049;-68
2023/09/29 05:18:48;;;;;;;0.30;0.30;;;;;;;15.97;67.66;100507.53;5045239;28;20068;-68
2023/09/29 05:21:15;;;;;;;0.28;0.28;;;;;;;16.04;67.25;100505.25;5056672;28;20048;-69
2023/09/29 05:23:42;;;;;;;0.20;0.20;;;;;;;16.07;66.97;100512.94;5059228;28;20582;-69
2023/09/29 05:26:11;;;;;;;0.20;0.20;;;;;;;16.07;66.67;100518.47;5054059;28;20511;-70
2023/09/29 05:28:38;;;;;;;0.20;0.20;;;;;;;16.15;66.45;100520.53;5043264;28;20159;-70
2023/09/29 05:31:04;;;;;;;0.20;0.20;;;;;;;16.16;66.22;100516.69;5041584;28;20145;-71
2023/09/29 05:33:31;;;;;;;0.23;0.23;;;;;;;16.20;65.63;100522.41;5045478;28;20057;-71
2023/09/29 05:35:58;;;;;;;0.20;0.20;;;;;;;16.27;65.63;100525.66;5040934;28;20539;-70
2023/09/29 05:38:25;;;;;;;0.20;0.20;;;;;;;16.32;65.38;100515.66;5027951;28;20041;-70
2023/09/29 05:40:52;;;;;;;0.20;0.20;;;;;;;16.36;64.99;100511.19;5031885;28;20535;-70
2023/09/29 05:43:20;;;;;;;0.20;0.20;;;;;;;16.47;64.49;100518.22;5012699;28;20049;-70
2023/09/29 05:45:47;;;;;;;0.45;0.30;;;;;;;16.56;64.28;100512.84;5053899;28;20189;-71
2023/09/29 05:48:13;;;;;;;0.20;0.20;;;;;;;16.54;64.30;100515.91;5043445;28;20048;-71
2023/09/29 05:50:40;;;;;;;0.30;0.30;;;;;;;16.55;63.95;100520.31;5065675;28;20364;-71
2023/09/29 05:53:07;;;;;;;;;;;;;;;16.67;64.57;100521.81;5055326;28;20048;-70
2023/09/29 05:55:33;;;;;;;0.20;0.20;;;;;;;16.89;63.46;100529.47;5043992;28;19924;-70
2023/09/29 05:58:00;;;;;;;0.27;0.27;;;;;;;17.05;62.50;100518.22;5044007;28;20428;-70
2023/09/29 06:00:28;;;;;;;0.28;0.28;;;;;;;17.22;62.23;100520.44;5032050;28;20151;-71
2023/09/29 06:02:54;;;;;;;0.30;0.30;;;;;;;17.40;61.54;100516.81;5041276;28;20492;-71
2023/09/29 06:05:21;;;;;;;0.30;0.30;;;;;;;17.54;61.33;100519.59;5039836;28;20110;-69
2023/09/29 06:07:47;;;;;;;0.30;0.30;;;;;;;17.79;60.43;100508.34;5022107;28;20068;-69
2023/09/29 06:10:14;;;;;;;0.30;0.30;;;;;;;17.97;59.96;100525.97;5049328;28;20110;-70
2023/09/29 06:12:41;;;;;;;0.30;0.30;;;;;;;18.01;59.36;100524.22;5051017;28;20041;-70
2023/09/29 06:15:11;;;;;;;;;;;;;;;17.95;60.24;100520.78;5043889;28;20361;-70
2023/09/29 06:17:40;;;;;;;0.30;0.30;;;;;;;17.86;60.16;100517.88;5064033;28;19942;-71
2023/09/29 06:20:07;;;;;;;0.30;0.30;;;;;;;17.88;59.99;100516.78;5052901;28;20098;-69
2023/09/29 06:22:36;;;;;;;0.30;0.30;;;;;;;17.83;60.20;100515.72;5061434;28;20048;-70
2023/09/29 06:25:03;;;;;;;0.35;0.30;;;;;;;17.93;59.85;100513.91;5054328;28;20057;-68
2023/09/29 06:27:31;;;;;;;0.30;0.30;;;;;;;18.12;59.02;100513.81;5057891;28;20040;-71
2023/09/29 06:30:03;;;;;;;0.30;0.30;;;;;;;18.30;58.37;100517.59;5043976;28;20041;-69
2023/09/29 06:32:34;;;;;;;0.30;0.30;;;;;;;18.55;57.88;100520.94;5045494;28;20067;-69
2023/09/29 06:35:04;;;;;;;0.30;0.30;;;;;;;18.74;57.39;100512.47;5067705;28;20055;-70
2023/09/29 06:37:32;;;;;;;0.30;0.30;;;;;;;19.12;56.30;100519.59;5071125;28;20044;-69
2023/09/29 06:39:59;;;;;;;0.30;0.30;;;;;;;19.45;55.29;100504.66;5053658;28;20079;-70
2023/09/29 06:42:26;;;;;;;0.30;0.30;;;;;;;19.72;54.62;100511.16;5069500;28;20458;-72
2023/09/29 06:44:55;;;;;;;0.30;0.30;;;;;;;19.74;54.38;100508.88;5055191;28;20077;-70
2023/09/29 06:47:22;;;;;;;0.30;0.30;;;;;;;20.02;53.48;100508.69;5050378;28;20049;-71
2023/09/29 06:49:50;;;;;;;0.38;0.38;;;;;;;20.21;52.82;100514.78;5038801;28;20045;-70
2023/09/29 06:52:18;;;;;;;0.38;0.38;;;;;;;20.45;52.00;100515.47;5067404;28;20143;-69
2023/09/29 06:54:45;;;;;;;0.30;0.30;;;;;;;20.47;52.10;100502.06;5045333;28;20044;-69
2023/09/29 06:57:11;;;;;;;0.30;0.30;;;;;;;20.79;51.49;100509.13;5055213;28;20129;-69
2023/09/29 06:59:37;;;;;;;0.52;0.38;;;;;;;21.16;50.53;100514.38;5067717;28;20052;-70
2023/09/29 07:02:03;;;;;;;0.30;0.30;;;;;;;21.24;49.60;100515.50;5057981;28;20053;-69
2023/09/29 07:04:29;;;;;;;0.40;0.40;;;;;;;21.00;50.12;100504.91;5058678;28;20273;-69
2023/09/29 07:06:56;;;;;;;0.30;0.30;;;;;;;20.92;50.52;100506.53;5068905;28;20045;-70
2023/09/29 07:09:23;;;;;;;0.30;0.30;;;;;;;21.28;50.26;100510.06;5067274;28;20055;-69
2023/09/29 07:11:50;;;;;;;0.30;0.30;;;;;;;21.66;49.17;100498.22;5063661;28;20141;-70
2023/09/29 07:14:17;;;;;;;0.35;0.35;;;;;;;21.99;48.49;100502.31;5051913;28;20045;-70
2023/09/29 07:16:44;;;;;;;0.30;0.30;;;;;;;22.31;47.46;100502.78;5059102;28;20066;-70
2023/09/29 07:19:13;;;;;;;0.30;0.30;;;;;;;22.38;47.29;100494.72;5057131;28;20334;-70
2023/09/29 07:21:40;;;;;;;0.40;0.40;;;;;;;22.74;46.51;100498.09;5046822;28;20144;-70
2023/09/29 07:24:07;;;;;;;0.40;0.40;;;;;;;22.85;45.93;100502.06;5047419;28;20432;-71
2023/09/29 07:26:35;;;;;;;;;;;;;;;22.76;46.68;100504.13;5057756;28;20515;-69
2023/09/29 07:29:03;;;;;;;0.30;0.30;;;;;;;22.99;45.97;100504.59;5063978;28;19968;-70
2023/09/29 07:31:36;;;;;;;0.30;0.30;;;;;;;23.36;45.10;100507.50;5068021;28;20538;-71
2023/09/29 07:34:02;;;;;;;0.40;0.40;;;;;;;23.25;44.91;100505.47;5068997;28;20107;-71
2023/09/29 07:36:33;;;;;;;0.40;0.40;;;;;;;23.18;45.20;100478.16;5064688;28;20094;-71
2023/09/29 07:39:00;;;;;;;0.30;0.30;;;;;;;23.77;44.12;100501.31;5050258;28;20419;-69
2023/09/29 07:41:26;;;;;;;0.30;0.30;;;;;;;24.14;43.21;100509.69;5048365;28;20385;-69
2023/09/29 07:43:58;;;;;;;0.35;0.35;;;;;;;24.33;43.18;100505.47;5049120;28;20480;-70
2023/09/29 07:46:25;;;;;;;0.30;0.30;;;;;;;24.56;42.52;100502.19;5012633;28;20053;-69
2023/09/29 07:48:51;;;;;;;0.30;0.30;;;;;;;24.77;41.63;100505.63;5042680;28;20096;-69
2023/09/29 07:51:17;;;;;;;0.30;0.30;;;;;;;24.84;41.88;100504.22;5059082;28;20147;-69
2023/09/29 07:53:44;;;;;;;0.30;0.30;;;;;;;25.04;41.50;100497.59;5055999;28;20109;-68
2023/09/29 07:56:10;;;;;;;0.30;0.30;;;;;;;25.22;40.87;100505.66;5048348;28;20310;-69
2023/09/29 07:58:36;;;;;;;0.30;0.30;;;;;;;25.43;40.79;100491.44;5045263;28;20079;-69
2023/09/29 08:01:04;;;;;;;0.40;0.40;;;;;;;25.62;40.29;100501.13;5053718;28;20048;-70
2023/09/29 08:03:30;;;;;;;0.40;0.40;;;;;;;25.48;40.66;100491.19;5059960;28;20094;-69
2023/09/29 08:05:57;;;;;;;0.30;0.30;;;;;;;26.00;39.88;100494.09;5062477;28;20037;-68
2023/09/29 08:08:24;;;;;;;;;;;;;;;26.64;39.46;100504.31;5046750;28;20432;-67
2023/09/29 08:10:50;;;;;;;;;;;;;;;26.92;38.50;100500.50;5049529;28;19970;-69
2023/09/29 08:13:16;;;;;;;0.30;0.30;;;;;;;26.40;38.86;100502.59;5064078;28;20310;-70
2023/09/29 08:15:42;;;;;;;0.30;0.30;;;;;;;26.22;39.34;100502.19;5068109;28;20072;-69
2023/09/29 08:18:10;;;;;;;0.40;0.40;;;;;;;26.43;39.05;100487.84;5055054;28;20148;-69
2023/09/29 08:20:37;;;;;;;0.40;0.40;;;;;;;26.92;38.14;100492.09;5046530;28;20041;-69
2023/09/29 08:23:03;;;;;;;0.40;0.40;;;;;;;27.30;37.18;100487.59;5062419;28;20076;-69
2023/09/29 08:25:31;;;;;;;0.40;0.40;;;;;;;27.50;37.07;100486.72;5075256;28;20484;-69
2023/09/29 08:28:02;;;;;;;0.50;0.50;;;;;;;27.68;36.78;100479.44;5066268;28;20094;-69
2023/09/29 08:30:29;;;;;;;0.50;0.50;;;;;;;27.91;37.09;100484.22;5066573;28;20048;-69
2023/09/29 08:32:55;;;;;;;0.40;0.40;;;;;;;28.17;36.63;100475.00;5058267;28;20435;-70
2023/09/29 08:35:23;;;;;;;0.47;0.47;;;;;;;28.30;36.23;100486.81;5046167;28;20083;-70
2023/09/29 08:37:49;;;;;;;0.40;0.40;;;;;;;28.58;36.04;100485.59;5039186;28;20060;-69
2023/09/29 08:40:19;;;;;;;0.45;0.45;;;;;;;28.78;35.32;100476.19;5068786;28;20080;-70
2023/09/29 08:42:50;;;;;;;0.40;0.40;;;;;;;28.40;36.36;100465.66;5053898;28;20091;-70
2023/09/29 08:45:19;;;;;;;0.50;0.50;;;;;;;28.57;36.23;100471.94;5059787;28;20134;-69
2023/09/29 08:47:49;;;;;;;0.50;0.50;;;;;;;28.80;35.78;100463.41;5064167;28;20131;-69
2023/09/29 08:50:16;;;;;;;0.55;0.55;;;;;;;28.98;35.55;100462.78;5061925;28;20048;-69
2023/09/29 08:52:45;;;;;;;0.50;0.50;;;;;;;29.27;35.44;100463.88;5052954;28;20041;-69
2023/09/29 08:55:12;;;;;;;0.50;0.50;;;;;;;29.44;34.80;100456.00;5047834;28;20057;-70
2023/09/29 08:57:41;;;;;;;0.50;0.50;;;;;;;28.91;35.57;100452.25;5031638;28;20056;-69
2023/09/29 09:00:12;;;;;;;0.50;0.50;;;;;;;28.76;36.14;100454.06;5049373;28;20413;-67
2023/09/29 09:02:43;;;;;;;0.50;0.50;;;;;;;28.45;36.35;100448.50;5056197;28;20053;-69
2023/09/29 09:05:10;;;;;;;0.63;0.60;;;;;;;28.79;36.23;100452.50;5058277;28;20137;-70
2023/09/29 09:07:37;;;;;;;0.50;0.50;;;;;;;28.85;35.75;100448.16;5045441;28;20041;-69
2023/09/29 09:10:06;;;;;;;0.40;0.40;;;;;;;28.51;36.75;100448.13;5062545;28;20048;-69
2023/09/29 09:12:34;;;;;;;0.40;0.40;;;;;;;28.14;37.05;100444.84;5068201;28;20040;-67
2023/09/29 09:15:01;;;;;;;0.43;0.43;;;;;;;27.88;37.65;100442.84;5061132;28;20071;-69
2023/09/29 09:17:31;;;;;;;0.50;0.50;;;;;;;27.22;38.87;100448.53;5066551;28;20048;-69
2023/09/29 09:19:57;;;;;;;0.50;0.50;;;;;;;27.01;39.52;100450.59;5055886;28;20041;-68
2023/09/29 09:22:27;;;;;;;0.60;0.60;;;;;;;27.55;38.59;100447.94;5056312;28;20609;-69
2023/09/29 09:24:57;;;;;;;0.60;0.60;;;;;;;27.70;38.13;100446.19;5068719;28;20522;-69
2023/09/29 09:27:25;;;;;;;0.60;0.60;;;;;;;27.84;37.60;100442.78;5081739;28;20051;-69
2023/09/29 09:29:52;;;;;;;0.60;0.60;;;;;;;28.06;37.84;100445.13;5083857;28;20111;-69
2023/09/29 09:32:25;;;;;;;0.50;0.50;;;;;;;28.44;36.88;100434.78;5048910;28;20071;-68
2023/09/29 09:34:52;;;;;;;0.60;0.60;;;;;;;28.26;36.44;100435.38;5047817;28;20060;-70
2023/09/29 09:37:24;;;;;;;0.60;0.60;;;;;;;27.99;36.67;100426.94;5045814;28;20049;-68
2023/09/29 09:39:53;;;;;;;0.60;0.60;;;;;;;27.67;37.02;100423.69;5065162;28;20055;-68
2023/09/29 09:42:24;;;;;;;0.60;0.60;;;;;;;27.41;37.48;100434.47;5066295;28;20049;-68
2023/09/29 09:44:54;;;;;;;0.63;0.63;;;;;;;27.37;37.22;100444.81;5064352;28;20052;-70
2023/09/29 09:47:25;;;;;;;0.60;0.60;;;;;;;27.70;36.75;100436.94;5063362;28;20041;-70
2023/09/29 09:49:55;;;;;;;0.60;0.60;;;;;;;28.37;35.90;100426.28;5047117;28;20044;-69
2023/09/29 09:52:24;;;;;;;0.60;0.60;;;;;;;28.55;35.07;100432.13;5047219;28;20041;-70
2023/09/29 09:54:53;;;;;;;0.60;0.60;;;;;;;28.85;35.01;100428.47;5051068;28;20048;-70
2023/09/29 09:57:23;;;;;;;0.50;0.50;;;;;;;29.01;34.56;100434.66;5046017;28;20443;-69
2023/09/29 09:59:54;;;;;;;0.60;0.60;;;;;;;28.94;34.62;100417.72;5048265;28;20048;-69
2023/09/29 10:02:22;;;;;;;0.63;0.63;;;;;;;29.63;33.54;100431.59;5030490;28;20470;-70
2023/09/29 10:04:50;;;;;;;0.60;0.60;;;;;;;30.19;32.47;100418.28;5053475;28;20520;-71
2023/09/29 10:07:17;;;;;;;0.60;0.60;;;;;;;30.48;31.83;100418.41;5066185;28;20044;-70
2023/09/29 10:09:44;;;;;;;;;;;;;;;30.79;31.56;100418.94;5061649;28;20049;-70
2023/09/29 10:12:23;;;;;;;0.60;0.60;;;;;;;31.30;30.29;100415.41;5048707;28;19924;-69
2023/09/29 10:14:49;;;;;;;0.55;0.55;;;;;;;31.74;29.75;100417.00;5049321;28;20089;-69
2023/09/29 10:17:17;;;;;;;0.57;0.57;;;;;;;30.74;31.07;100407.25;5049001;28;20100;-70
2023/09/29 10:19:45;;;;;;;0.60;0.60;;;;;;;30.28;31.73;100396.19;5067517;28;20048;-70
2023/09/29 10:22:21;;;;;;;0.55;0.55;;;;;;;30.77;31.05;100400.81;5060814;28;20106;-69
2023/09/29 10:24:47;;;;;;;0.60;0.60;;;;;;;31.78;29.69;100394.44;5049066;28;20524;-71
2023/09/29 10:27:27;;;;;;;0.55;0.55;;;;;;;32.49;28.63;100391.78;5053488;28;20041;-70
2023/09/29 10:30:09;;;;;;;0.60;0.60;;;;;;;32.75;27.99;100392.41;5052084;28;20053;-69
2023/09/29 10:32:46;;;;;;;0.70;0.70;;;;;;;32.12;27.98;100357.16;5064023;28;20036;-70
2023/09/29 10:35:18;;;;;;;0.60;0.60;;;;;;;31.71;28.75;100397.22;5050600;28;20441;-69
2023/09/29 10:37:49;;;;;;;0.60;0.60;;;;;;;32.10;28.24;100382.22;5049282;28;20048;-69
2023/09/29 10:40:32;;;;;;;0.60;0.60;;;;;;;33.12;26.87;100382.50;5057093;28;20037;-69
2023/09/29 10:43:02;;;;;;;0.60;0.60;;;;;;;33.50;26.26;100378.94;5025555;28;20047;-70
2023/09/29 10:45:31;;;;;;;0.60;0.60;;;;;;;32.99;26.64;100381.38;5056282;28;20516;-70
2023/09/29 10:48:09;;;;;;;0.73;0.73;;;;;;;32.80;27.03;100380.69;5046572;28;20052;-70
2023/09/29 10:50:40;;;;;;;0.70;0.70;;;;;;;32.85;26.71;100377.41;5052171;28;20103;-70
2023/09/29 10:53:07;;;;;;;0.80;0.80;;;;;;;33.37;26.43;100375.78;5063598;28;20060;-70
2023/09/29 10:55:36;;;;;;;0.80;0.80;;;;;;;34.44;24.99;100380.72;5064890;28;20057;-68
2023/09/29 10:58:04;;;;;;;1.00;1.00;;;;;;;34.60;23.93;100368.75;5060917;28;20041;-71
2023/09/29 11:00:40;;;;;;;0.90;0.90;;;;;;;34.86;24.04;100369.19;5070721;28;20052;-69
2023/09/29 11:03:11;;;;;;;1.00;1.00;;;;;;;34.11;24.67;100359.66;5068620;28;20626;-68
2023/09/29 11:05:48;;;;;;;0.90;0.90;;;;;;;33.97;24.76;100355.78;5060781;28;20052;-68
2023/09/29 11:08:16;;;;;;;;;;;;;;;33.41;25.62;100361.59;5051218;28;20159;-68
2023/09/29 11:10:57;;;;;;;1.00;1.00;;;;;;;33.12;25.54;100364.69;5040574;28;20022;-69
2023/09/29 11:13:24;;;;;;;1.10;1.10;;;;;;;33.78;24.97;100355.16;5060827;28;20064;-71
2023/09/29 11:15:50;;;;;;;;;;;;;;;34.83;24.16;100355.84;5047138;28;20512;-69
2023/09/29 11:18:27;;;;;;;1.10;1.10;;;;;;;34.91;23.00;100345.19;5062195;28;19965;-70
2023/09/29 11:20:53;;;;;;;1.17;1.10;;;;;;;34.52;23.59;100349.41;5044847;28;20422;-69
2023/09/29 11:23:19;;;;;;;1.13;1.13;;;;;;;34.78;23.39;100348.63;5038732;28;20064;-70
2023/09/29 11:25:47;;;;;;;1.10;1.10;;;;;;;35.03;23.55;100344.59;5053022;28;20052;-69
2023/09/29 11:28:13;;;;;;;1.30;1.20;;;;;;;35.62;22.77;100339.50;5065075;28;20041;-69
2023/09/29 11:30:39;;;;;;;;;;;;;;;35.42;22.36;100341.50;5064919;28;20484;-69